Granville, NY (12832)

10:44 PM EDT on October 01, 2014 (GMT -0400)
Granville | Change Station
CLOSE
Current Station
Personal Weather Station
Location: Granville, NY
Elevation: 417 ft
Nearby Weather Stations

Elev 417 ft 43.40 °N, 73.27 °W | Updated 4 minutes ago

Overcast
Overcast
58.6 °F
Feels Like 58.6 °F
N
1.0
Wind Variable Wind from NNE
Gusts 3.0 mph

Today
High -- | Low -- °F
--% Chance of Precip.
Yesterday
High -- | Low -- °F
Precip. -- in
6:50 AM 6:34 PM
First Quarter, 53% visible
Pressure 30.14 in
Visibility 10.0 miles
Clouds Overcast 3800 ft
Dew Point 56 °F
Humidity 91%
Rainfall 0.00 in
Snow Depth Not available.
UV 0 out of 12
Pollen 1.20 out of 12
PM2.5 Good
Flu Activity Not available.
METAR KGFL 020153Z AUTO 02004KT 10SM OVC038 16/12 A3014 RMK AO2 SLP206 T01610122

More Conditions Fewer Conditions

Pressure 30.14 in
Visibility 10.0 miles
Clouds Overcast 3800 ft
Dew Point 56 °F
Humidity 91%
Rainfall 0.00 in
Snow Depth Not available.
UV 0 out of 12
Pollen 1.20 out of 12
PM2.5 Good
Flu Activity Not available.
METAR KGFL 020153Z AUTO 02004KT 10SM OVC038 16/12 A3014 RMK AO2 SLP206 T01610122

More Conditions Fewer Conditions

10-Day Weather Forecast

Almanac

Astronomy

Oct. 01, 2014 Rise Set
Actual Time 6:50 AM EDT 6:34 PM EDT
Civil Twilight 6:22 AM EDT 7:02 PM EDT
Nautical Twilight 5:48 AM EDT 7:35 PM EDT
Astronomical Twilight 5:15 AM EDT 8:09 PM EDT
Moon 1:56 PM EDT (10/1) 11:56 PM EDT (10/1)
Length of Visible Light 12h 40m
Length of Day
11h 43m
Tomorrow will be 2m 55s shorter.
First Quarter, 53% of the Moon is Illuminated
Today
First Quarter
Oct 8
Full
Oct 15
Last Quarter
Oct 23
New
Oct 30
First Quarter

Today's Extremes

State Highs State Lows

Community

WunderPhotos

Upload Photos

1,758,154 photos uploaded!

WunderBlogs® & News

Nearby

Air Quality

  Air Quality AQ Index Pollutant
Yesterday Good
PM2.5
Yesterday Good
OZONE
Current Good
PM2.5
Wednesday Good
PM2.5
Thursday Good
PM2.5

Snow Depth

Station Depth Elevation
No new snow has been reported.

Earthquake Activity

City Distance Mag. Time & Date
No recent earthquake activity has been reported nearby.
Minimum magnitude displayed is 2.5.

Coastal Water Temperatures

Place Temperature
No Stations Reporting

Nearby Weather Stations